Aérodrome :
LOGIN :

S'inscrire | Disclaimer

   EN    FR    IT 

 










Légende :    VFR   VFR Marginal   IFR   IFR Intensif   IFR Très Intensif
Visi : 
Plafond : 
>= 8 km
>= 3000ft
5 à 8 km
1000 à 3000 ft
1500m à 5 km
500 à 1000 ft
800 à 1500m
200 à 500 ft
< 800m
< 200 ft
Symboles :   Orages  Brouillard  Fortes neiges  Fortes précipitations  Vent > 20 kt
SIGMETs :   Divers  Orages  Givrage  Turbulence  Onde Orograph.  Cendres Volcan.






- Altitude de l'aérodrome : 1649 ft
- Code IATA : HHN


EDFH - Frankfurt-Hahn Rhineland-Palatinate

DERNIER METAR :
  • 070050Z 25019G29KT 220V280 8000 -RA BKN003 06/06 Q1008

METARs EXPIRÉS :
  • 070020Z 25019G30KT 8000 BKN004 06/06 Q1008
  • 062350Z 25017KT 9999 -DZ BKN005 05/05 Q1008
  • 062320Z 25018G29KT 9000 -DZ BKN005 05/05 Q1009
  • 062250Z 25016G29KT 220V280 9999 -DZ BKN006 05/05 Q1009
  • 062220Z 24016G28KT 210V270 7000 -RA BKN006 05/05 Q1009

TAF TAF EDFH
Valide du 07 à 00h jusqu'au 08 à 00h UTC


062300Z 0700/0724 26015G25KT 6000 BKN006
TEMPO 0700/0708 2000 -RA BR BKN003
PROB30
TEMPO 0700/0706 0500 -DZ FG OVC001
BECMG 0706/0709 26012KT
TEMPO 0716/0724 3000 BR



MET'MAP, la Météo Aéronautique d'un coup d'oeil ! - Copyright ORBIFLY Décembre 2007 - Disclaimer

ORBIFLY MET'MAP TEAM :

Programmation & Développement : Alexandra Zaïnal
Sur une idée originale de : Baudouin d'Aumeries
Assistance à la programmation : Marc-Olivier Méhu
Soutien technique & logistique : Manuel Goepfert

Contact : metmap@orbifly.com




SOURCES & CREDITS :

   NOAA